Time;durP1;ratioP1;P1;durP2;ratioP2;P2;SDS_P1;SDS_P2;PMS_P1;PMS_P2;Temp;Humidity;BMP_temperature;BMP_pressure;BME280_temperature;BME280_humidity;BME280_pressure;Samples;Min_cycle;Max_cycle;Signal;HPM_P1;HPM_P2
2022/04/21 00:02:17;;;;;;;9.60;3.53;;;;;;;;;;5012101;28;20496;-80
2022/04/21 00:04:42;;;;;;;10.35;3.38;;;;;;;;;;5012438;28;20037;-81
2022/04/21 00:07:07;;;;;;;7.20;3.35;;;;;;;;;;5011594;28;20033;-81
2022/04/21 00:09:33;;;;;;;9.57;3.75;;;;;;;;;;5010998;28;20033;-81
2022/04/21 00:11:58;;;;;;;8.63;3.38;;;;;;;;;;5010980;28;20040;-81
2022/04/21 00:14:23;;;;;;;10.50;3.55;;;;;;;;;;5012050;28;20029;-81
2022/04/21 00:16:49;;;;;;;7.07;3.30;;;;;;;;;;5012104;28;20492;-82
2022/04/21 00:19:15;;;;;;;10.00;3.50;;;;;;;;;;5011353;28;20030;-80
2022/04/21 00:24:24;;;;;;;11.93;3.50;;;;;;;;;;5028797;28;20428;-80
2022/04/21 00:26:49;;;;;;;10.13;4.30;;;;;;;;;;5026405;28;20065;-80
2022/04/21 00:29:15;;;;;;;9.65;3.78;;;;;;;;;;5027144;28;20516;-81
2022/04/21 00:31:40;;;;;;;8.32;3.88;;;;;;;;;;5010627;28;20041;-81
2022/04/21 00:34:05;;;;;;;10.95;3.80;;;;;;;;;;5010588;28;20029;-81
2022/04/21 00:36:30;;;;;;;10.35;4.10;;;;;;;;;;5024629;28;20040;-81
2022/04/21 00:38:56;;;;;;;8.45;3.35;;;;;;;;;;5008303;28;20033;-82
2022/04/21 00:41:21;;;;;;;9.45;3.97;;;;;;;;;;5024707;28;20117;-81
2022/04/21 00:43:46;;;;;;;10.13;3.83;;;;;;;;;;5007989;28;20116;-80
2022/04/21 00:46:18;;;;;;;10.95;3.90;;;;;;;;;;5025646;28;20061;-80
2022/04/21 00:48:44;;;;;;;9.10;4.03;;;;;;;;;;5027333;28;20488;-80
2022/04/21 00:51:10;;;;;;;7.90;3.65;;;;;;;;;;5009255;28;20108;-81
2022/04/21 00:53:37;;;;;;;9.90;3.95;;;;;;;;;;5003656;28;20034;-80
2022/04/21 00:56:03;;;;;;;9.00;3.50;;;;;;;;;;5009784;28;20042;-80
2022/04/21 00:58:29;;;;;;;9.23;3.80;;;;;;;;;;5024605;28;20041;-81
2022/04/21 01:00:54;;;;;;;8.90;3.67;;;;;;;;;;5001912;28;20511;-81
2022/04/21 01:03:20;;;;;;;7.70;3.60;;;;;;;;;;5013256;28;20033;-80
2022/04/21 01:05:47;;;;;;;11.40;3.83;;;;;;;;;;5009177;28;20029;-81
2022/04/21 01:08:12;;;;;;;11.23;3.53;;;;;;;;;;5004441;28;20111;-80
2022/04/21 01:10:41;;;;;;;9.77;3.60;;;;;;;;;;5028717;28;20037;-80
2022/04/21 01:13:08;;;;;;;8.35;3.80;;;;;;;;;;5026675;28;20037;-80
2022/04/21 01:15:33;;;;;;;9.80;3.95;;;;;;;;;;4999617;28;20148;-80
2022/04/21 01:17:58;;;;;;;12.40;3.72;;;;;;;;;;5025427;28;20481;-81
2022/04/21 01:20:25;;;;;;;10.55;4.07;;;;;;;;;;5009834;28;20032;-81
2022/04/21 01:22:51;;;;;;;13.23;3.78;;;;;;;;;;5008078;28;20034;-82
2022/04/21 01:25:16;;;;;;;6.68;3.17;;;;;;;;;;5021033;28;20061;-81
2022/04/21 01:27:43;;;;;;;9.20;3.60;;;;;;;;;;5007900;28;20073;-80
2022/04/21 01:30:10;;;;;;;8.23;3.50;;;;;;;;;;5008822;28;20038;-80
2022/04/21 01:32:36;;;;;;;8.63;3.77;;;;;;;;;;5029200;28;20108;-80
2022/04/21 01:35:06;;;;;;;10.95;3.70;;;;;;;;;;5015495;28;20396;-80
2022/04/21 01:43:02;;;;;;;7.95;3.53;;;;;;;;;;5029758;28;20164;-81
2022/04/21 01:45:27;;;;;;;8.25;3.78;;;;;;;;;;5014165;28;20112;-80
2022/04/21 01:47:54;;;;;;;12.27;4.35;;;;;;;;;;5012241;28;20050;-80
2022/04/21 01:50:20;;;;;;;9.23;3.80;;;;;;;;;;5007581;28;20560;-81
2022/04/21 01:52:45;;;;;;;11.60;3.60;;;;;;;;;;5005199;28;20111;-81
2022/04/21 01:55:11;;;;;;;8.52;3.72;;;;;;;;;;5013858;28;20514;-81
2022/04/21 01:57:36;;;;;;;9.95;3.70;;;;;;;;;;5010117;28;20042;-80
2022/04/21 02:00:02;;;;;;;9.95;4.53;;;;;;;;;;5007852;28;20038;-80
2022/04/21 02:02:29;;;;;;;8.25;4.05;;;;;;;;;;5006887;28;20400;-81
2022/04/21 02:04:55;;;;;;;9.90;3.83;;;;;;;;;;5013271;28;20041;-80
2022/04/21 02:07:20;;;;;;;10.55;4.10;;;;;;;;;;5004686;28;20037;-80
2022/04/21 02:09:46;;;;;;;8.15;3.88;;;;;;;;;;5028956;28;20037;-80
2022/04/21 02:12:11;;;;;;;8.45;4.10;;;;;;;;;;5045193;28;20088;-80
2022/04/21 02:14:37;;;;;;;10.30;4.15;;;;;;;;;;5013376;28;20049;-80
2022/04/21 02:17:05;;;;;;;11.95;5.03;;;;;;;;;;5013817;28;20034;-80
2022/04/21 02:19:30;;;;;;;;;;;;;;;;;;5014413;28;20444;-80
2022/04/21 02:21:56;;;;;;;9.52;3.85;;;;;;;;;;5012553;28;19998;-80
2022/04/21 02:24:21;;;;;;;13.60;5.15;;;;;;;;;;5008387;28;20034;-81
2022/04/21 02:26:47;;;;;;;10.90;4.32;;;;;;;;;;5011975;28;20041;-81
2022/04/21 02:29:12;;;;;;;11.77;4.65;;;;;;;;;;5012401;28;20693;-80
2022/04/21 02:31:37;;;;;;;11.80;4.57;;;;;;;;;;5011290;28;20043;-80
2022/04/21 02:34:03;;;;;;;9.82;4.47;;;;;;;;;;5009028;28;20099;-80
2022/04/21 02:36:28;;;;;;;11.52;4.47;;;;;;;;;;5008255;28;20083;-81
2022/04/21 02:38:53;;;;;;;8.13;3.97;;;;;;;;;;5012938;28;20040;-80
2022/04/21 02:41:19;;;;;;;9.50;4.30;;;;;;;;;;5011441;28;20090;-82
2022/04/21 02:43:44;;;;;;;11.00;4.05;;;;;;;;;;5027221;28;20056;-81
2022/04/21 02:46:10;;;;;;;12.80;4.72;;;;;;;;;;5005010;28;20069;-80
2022/04/21 02:48:35;;;;;;;9.60;4.45;;;;;;;;;;5028940;28;20132;-80
2022/04/21 02:51:01;;;;;;;10.18;4.40;;;;;;;;;;5030064;28;20449;-80
2022/04/21 02:59:00;;;;;;;12.68;4.53;;;;;;;;;;5029454;28;20503;-80
2022/04/21 03:01:26;;;;;;;13.33;5.53;;;;;;;;;;5012280;28;20034;-80
2022/04/21 03:03:51;;;;;;;12.65;5.38;;;;;;;;;;5029495;28;20087;-80
2022/04/21 03:06:17;;;;;;;10.15;4.32;;;;;;;;;;5029309;28;20121;-80
2022/04/21 03:08:42;;;;;;;13.63;5.78;;;;;;;;;;5029644;28;20049;-79
2022/04/21 03:11:08;;;;;;;13.40;5.13;;;;;;;;;;5011750;28;20405;-80
2022/04/21 03:13:33;;;;;;;11.05;5.18;;;;;;;;;;5011150;28;20057;-80
2022/04/21 03:15:58;;;;;;;10.95;4.85;;;;;;;;;;5012889;28;20025;-80
2022/04/21 03:18:25;;;;;;;10.60;4.97;;;;;;;;;;5006976;28;20087;-80
2022/04/21 03:26:18;;;;;;;11.35;4.72;;;;;;;;;;5025059;28;21585;-80
2022/04/21 03:28:44;;;;;;;12.52;5.32;;;;;;;;;;5028166;28;20061;-80
2022/04/21 03:31:09;;;;;;;13.25;5.00;;;;;;;;;;5027660;28;20033;-80
2022/04/21 03:33:34;;;;;;;11.60;5.45;;;;;;;;;;5011335;28;20033;-80
2022/04/21 03:36:00;;;;;;;12.93;5.60;;;;;;;;;;5003458;28;20509;-80
2022/04/21 03:38:25;;;;;;;11.27;5.80;;;;;;;;;;5007197;28;20040;-80
2022/04/21 03:40:50;;;;;;;13.30;6.07;;;;;;;;;;5028446;28;20381;-80
2022/04/21 03:43:16;;;;;;;13.07;5.80;;;;;;;;;;5028273;28;20025;-80
2022/04/21 03:45:41;;;;;;;12.77;5.43;;;;;;;;;;5011114;28;20091;-80
2022/04/21 03:48:07;;;;;;;14.85;5.70;;;;;;;;;;5006602;28;20565;-80
2022/04/21 03:50:34;;;;;;;13.35;5.70;;;;;;;;;;5012364;28;20030;-80
2022/04/21 03:52:59;;;;;;;10.53;5.53;;;;;;;;;;5028457;28;20477;-81
2022/04/21 03:55:25;;;;;;;11.55;5.55;;;;;;;;;;5012108;28;20034;-80
2022/04/21 03:57:50;;;;;;;10.95;5.03;;;;;;;;;;5011141;28;20022;-80
2022/04/21 04:00:15;;;;;;;10.13;5.57;;;;;;;;;;5009500;28;20497;-80
2022/04/21 04:02:41;;;;;;;11.25;5.60;;;;;;;;;;5010018;28;20041;-81
2022/04/21 04:05:07;;;;;;;11.60;5.70;;;;;;;;;;5003143;28;20041;-81
2022/04/21 04:12:59;;;;;;;12.25;5.75;;;;;;;;;;5025629;28;20095;-80
2022/04/21 04:15:25;;;;;;;10.18;5.15;;;;;;;;;;5007694;28;20033;-79
2022/04/21 04:17:50;;;;;;;12.55;5.53;;;;;;;;;;5026005;28;20033;-80
2022/04/21 04:20:15;;;;;;;12.70;5.50;;;;;;;;;;5026440;28;20033;-80
2022/04/21 04:22:42;;;;;;;13.85;5.78;;;;;;;;;;5010391;28;20407;-80
2022/04/21 04:25:10;;;;;;;11.30;5.28;;;;;;;;;;5009770;28;20037;-80
2022/04/21 04:27:36;;;;;;;14.07;5.72;;;;;;;;;;5026529;28;20392;-80
2022/04/21 04:30:03;;;;;;;12.77;5.18;;;;;;;;;;5010611;28;20049;-80
2022/04/21 04:32:28;;;;;;;12.90;5.50;;;;;;;;;;5008157;28;20041;-81
2022/04/21 04:34:56;;;;;;;13.27;6.00;;;;;;;;;;5009097;28;20033;-80
2022/04/21 04:37:21;;;;;;;13.27;5.90;;;;;;;;;;5007995;28;20067;-81
2022/04/21 04:39:47;;;;;;;15.30;5.53;;;;;;;;;;5027221;28;20542;-80
2022/04/21 04:42:19;;;;;;;21.35;5.75;;;;;;;;;;5007662;28;20060;-80
2022/04/21 04:44:45;;;;;;;11.77;5.50;;;;;;;;;;5011622;28;20507;-80
2022/04/21 04:47:11;;;;;;;11.48;5.30;;;;;;;;;;5005707;28;20033;-80
2022/04/21 04:49:36;;;;;;;13.10;5.97;;;;;;;;;;5028582;28;20049;-80
2022/04/21 04:52:02;;;;;;;11.73;5.32;;;;;;;;;;5011773;28;20034;-80
2022/04/21 04:54:29;;;;;;;14.23;5.88;;;;;;;;;;5009512;28;20107;-80
2022/04/21 04:56:55;;;;;;;13.45;5.38;;;;;;;;;;5009272;28;20362;-81
2022/04/21 04:59:21;;;;;;;11.32;5.28;;;;;;;;;;5011551;28;20040;-79
2022/04/21 05:01:46;;;;;;;11.98;5.65;;;;;;;;;;5027063;28;20493;-80
2022/04/21 05:04:19;;;;;;;12.75;5.70;;;;;;;;;;5027072;28;20282;-80
2022/04/21 05:06:47;;;;;;;16.25;5.82;;;;;;;;;;5029307;28;20095;-80
2022/04/21 05:09:18;;;;;;;14.00;5.97;;;;;;;;;;5015405;28;20038;-80
2022/04/21 05:11:50;;;;;;;13.15;5.75;;;;;;;;;;5014981;28;20041;-79
2022/04/21 05:14:17;;;;;;;12.88;5.78;;;;;;;;;;5010232;28;20393;-80
2022/04/21 05:16:43;;;;;;;12.40;5.85;;;;;;;;;;5007541;28;20041;-80
2022/04/21 05:19:09;;;;;;;15.10;6.57;;;;;;;;;;5032379;28;20048;-81
2022/04/21 05:21:36;;;;;;;10.32;5.85;;;;;;;;;;5032646;28;20450;-80
2022/04/21 05:24:02;;;;;;;13.10;5.57;;;;;;;;;;5007772;28;20037;-80
2022/04/21 05:26:29;;;;;;;11.10;5.75;;;;;;;;;;5010333;28;20060;-80
2022/04/21 05:28:55;;;;;;;14.55;6.82;;;;;;;;;;5007980;28;20091;-81
2022/04/21 05:31:21;;;;;;;12.05;6.22;;;;;;;;;;5006276;28;20112;-80
2022/04/21 05:33:47;;;;;;;12.13;5.50;;;;;;;;;;5013305;28;20112;-81
2022/04/21 05:36:13;;;;;;;12.32;6.28;;;;;;;;;;5007782;28;20021;-81
2022/04/21 05:38:38;;;;;;;10.98;5.78;;;;;;;;;;5015370;28;20061;-81
2022/04/21 05:41:04;;;;;;;11.13;5.22;;;;;;;;;;5008483;28;20033;-81
2022/04/21 05:43:50;;;;;;;10.20;5.78;;;;;;;;;;5030390;28;20037;-81
2022/04/21 05:46:16;;;;;;;11.45;5.50;;;;;;;;;;5002600;28;20033;-81
2022/04/21 05:48:42;;;;;;;14.65;6.30;;;;;;;;;;5030234;28;20374;-81
2022/04/21 05:51:10;;;;;;;13.77;6.60;;;;;;;;;;5045910;28;20037;-81
2022/04/21 05:53:36;;;;;;;;;;;;;;;;;;4998133;28;20777;-81
2022/04/21 05:56:05;;;;;;;13.00;6.50;;;;;;;;;;5007174;28;20035;-81
2022/04/21 05:58:30;;;;;;;14.15;6.38;;;;;;;;;;5003616;28;20044;-81
2022/04/21 06:00:56;;;;;;;13.00;6.50;;;;;;;;;;5030951;28;20492;-80
2022/04/21 06:03:22;;;;;;;15.52;6.93;;;;;;;;;;5013442;28;20037;-81
2022/04/21 06:05:47;;;;;;;12.73;6.75;;;;;;;;;;5014339;28;20041;-81
2022/04/21 06:08:12;;;;;;;13.93;7.03;;;;;;;;;;5029348;28;20045;-81
2022/04/21 06:10:38;;;;;;;15.95;6.90;;;;;;;;;;5029798;28;20045;-81
2022/04/21 06:13:03;;;;;;;11.68;6.50;;;;;;;;;;5012785;28;20040;-82
2022/04/21 06:15:33;;;;;;;14.18;6.82;;;;;;;;;;5012524;28;20037;-81
2022/04/21 06:18:01;;;;;;;12.68;7.00;;;;;;;;;;5002950;28;20042;-81
2022/04/21 06:20:28;;;;;;;14.40;6.35;;;;;;;;;;5017077;28;20040;-82
2022/04/21 06:22:54;;;;;;;10.85;6.22;;;;;;;;;;5029338;28;20042;-81
2022/04/21 06:25:21;;;;;;;11.90;6.18;;;;;;;;;;5029245;28;20034;-82
2022/04/21 06:27:47;;;;;;;16.30;6.72;;;;;;;;;;5013033;28;20485;-82
2022/04/21 06:30:12;;;;;;;16.02;7.07;;;;;;;;;;5013267;28;20056;-82
2022/04/21 06:32:37;;;;;;;14.13;7.45;;;;;;;;;;5009092;28;20044;-80
2022/04/21 06:35:04;;;;;;;12.43;6.70;;;;;;;;;;5025256;28;20080;-80
2022/04/21 06:37:29;;;;;;;14.98;7.20;;;;;;;;;;5025684;28;20111;-81
2022/04/21 06:39:54;;;;;;;18.23;7.00;;;;;;;;;;5025649;28;20033;-81
2022/04/21 06:42:19;;;;;;;13.75;6.82;;;;;;;;;;5025302;28;20140;-80
2022/04/21 06:50:12;;;;;;;12.98;6.38;;;;;;;;;;5024754;28;20447;-80
2022/04/21 06:52:38;;;;;;;13.98;6.90;;;;;;;;;;5024932;28;20045;-79
2022/04/21 06:55:04;;;;;;;11.32;6.18;;;;;;;;;;5014051;28;20026;-79
2022/04/21 06:57:30;;;;;;;11.27;6.22;;;;;;;;;;5012535;28;20828;-79
2022/04/21 06:59:58;;;;;;;13.90;6.13;;;;;;;;;;5007532;28;20450;-80
2022/04/21 07:02:37;;;;;;;11.88;6.18;;;;;;;;;;5023318;28;20400;-79
2022/04/21 07:05:03;;;;;;;15.02;6.53;;;;;;;;;;5009463;28;20038;-79
2022/04/21 07:07:29;;;;;;;12.50;5.63;;;;;;;;;;5024499;28;20095;-79
2022/04/21 07:09:56;;;;;;;9.30;5.20;;;;;;;;;;5025329;28;20103;-79
2022/04/21 07:12:29;;;;;;;11.45;5.50;;;;;;;;;;5024410;28;20108;-79
2022/04/21 07:14:56;;;;;;;12.65;5.78;;;;;;;;;;5024637;28;20041;-79
2022/04/21 07:17:21;;;;;;;12.93;5.72;;;;;;;;;;5040221;28;20100;-80
2022/04/21 07:19:48;;;;;;;12.05;5.53;;;;;;;;;;5024151;28;20527;-80
2022/04/21 07:22:13;;;;;;;11.03;5.33;;;;;;;;;;5007959;28;20041;-80
2022/04/21 07:24:38;;;;;;;11.95;6.10;;;;;;;;;;5008044;28;20072;-82
2022/04/21 07:27:04;;;;;;;15.48;5.55;;;;;;;;;;5007517;28;20041;-82
2022/04/21 07:29:30;;;;;;;13.20;5.18;;;;;;;;;;5007748;28;20052;-82
2022/04/21 07:31:56;;;;;;;14.82;5.65;;;;;;;;;;5008671;28;20045;-83
2022/04/21 07:34:21;;;;;;;11.60;5.68;;;;;;;;;;5007579;28;20041;-83
2022/04/21 07:36:47;;;;;;;13.02;5.10;;;;;;;;;;5008310;28;20049;-83
2022/04/21 07:39:12;;;;;;;10.27;5.20;;;;;;;;;;5002070;28;20381;-83
2022/04/21 07:41:37;;;;;;;11.20;4.68;;;;;;;;;;5008074;28;20497;-83
2022/04/21 07:44:03;;;;;;;12.35;5.68;;;;;;;;;;5023874;28;20037;-82
2022/04/21 07:46:28;;;;;;;12.10;5.15;;;;;;;;;;5007620;28;20049;-82
2022/04/21 07:51:37;;;;;;;10.55;5.47;;;;;;;;;;5023987;28;20080;-83
2022/04/21 07:54:02;;;;;;;11.00;5.47;;;;;;;;;;5024371;28;20065;-81
2022/04/21 07:56:28;;;;;;;17.02;5.65;;;;;;;;;;5007882;28;20064;-82
2022/04/21 07:58:53;;;;;;;12.35;5.25;;;;;;;;;;5007809;28;20044;-82
2022/04/21 08:01:18;;;;;;;12.85;5.43;;;;;;;;;;5023674;28;20393;-82
2022/04/21 08:03:44;;;;;;;11.10;5.40;;;;;;;;;;5007866;28;20046;-83
2022/04/21 08:06:09;;;;;;;13.32;5.47;;;;;;;;;;5023278;28;20391;-81
2022/04/21 08:08:34;;;;;;;9.40;5.53;;;;;;;;;;5024507;28;20033;-81
2022/04/21 08:11:00;;;;;;;10.90;5.93;;;;;;;;;;5024784;28;20033;-81
2022/04/21 08:13:25;;;;;;;10.90;4.82;;;;;;;;;;5027164;28;20428;-81
2022/04/21 08:15:53;;;;;;;13.52;5.60;;;;;;;;;;5004099;28;20048;-81
2022/04/21 08:18:18;;;;;;;15.02;5.90;;;;;;;;;;5040276;28;20084;-80
2022/04/21 08:20:47;;;;;;;11.93;5.60;;;;;;;;;;5007943;28;20505;-81
2022/04/21 08:23:12;;;;;;;13.30;5.68;;;;;;;;;;5023261;28;20044;-81
2022/04/21 08:33:52;;;;;;;11.50;5.15;;;;;;;;;;5024606;28;20099;-82
2022/04/21 08:36:18;;;;;;;11.52;5.97;;;;;;;;;;5007354;28;20099;-81
2022/04/21 08:38:43;;;;;;;11.57;6.07;;;;;;;;;;4997340;28;20045;-80
2022/04/21 08:41:14;;;;;;;12.55;5.57;;;;;;;;;;5005324;28;20034;-81
2022/04/21 08:43:40;;;;;;;12.25;6.07;;;;;;;;;;5007923;28;20061;-81
2022/04/21 08:46:08;;;;;;;12.70;6.50;;;;;;;;;;5033787;28;20041;-80
2022/04/21 08:48:34;;;;;;;12.32;6.05;;;;;;;;;;5025898;28;20033;-80
2022/04/21 08:51:01;;;;;;;12.68;5.93;;;;;;;;;;5023126;28;20045;-83
2022/04/21 08:53:30;;;;;;;10.45;6.15;;;;;;;;;;5023882;28;20036;-82
2022/04/21 08:55:56;;;;;;;10.73;5.78;;;;;;;;;;5006401;28;20040;-83
2022/04/21 08:58:21;;;;;;;13.07;6.20;;;;;;;;;;5022788;28;20203;-81
2022/04/21 09:00:47;;;;;;;11.75;6.28;;;;;;;;;;4999218;28;20130;-82
2022/04/21 09:03:13;;;;;;;11.75;6.15;;;;;;;;;;5000203;28;20472;-83
2022/04/21 09:05:40;;;;;;;10.40;6.32;;;;;;;;;;5023439;28;20048;-82
2022/04/21 09:08:17;;;;;;;12.02;6.50;;;;;;;;;;5022892;28;20135;-83
2022/04/21 09:10:43;;;;;;;13.43;6.00;;;;;;;;;;4997432;28;20046;-81
2022/04/21 09:13:12;;;;;;;10.30;6.15;;;;;;;;;;5006697;28;20160;-82
2022/04/21 09:15:37;;;;;;;15.65;6.32;;;;;;;;;;5007250;28;20038;-81
2022/04/21 09:18:08;;;;;;;10.50;6.30;;;;;;;;;;5006660;28;20450;-83
2022/04/21 09:20:36;;;;;;;11.80;5.82;;;;;;;;;;5003280;28;20038;-84
2022/04/21 09:23:04;;;;;;;11.10;6.82;;;;;;;;;;5039053;28;20075;-83
2022/04/21 09:25:50;;;;;;;11.57;6.43;;;;;;;;;;5006510;28;20033;-82
2022/04/21 09:28:23;;;;;;;12.05;6.30;;;;;;;;;;4997214;28;20041;-82
2022/04/21 09:30:52;;;;;;;12.77;6.65;;;;;;;;;;4999917;28;21019;-83
2022/04/21 09:33:27;;;;;;;10.45;6.25;;;;;;;;;;5006917;28;20041;-83
2022/04/21 09:35:55;;;;;;;10.63;6.18;;;;;;;;;;5022623;28;20033;-82
2022/04/21 09:38:21;;;;;;;11.57;5.70;;;;;;;;;;4996188;28;20030;-83
2022/04/21 09:40:47;;;;;;;12.82;6.57;;;;;;;;;;4999850;28;20099;-83
2022/04/21 09:43:12;;;;;;;12.25;6.55;;;;;;;;;;5022698;28;20037;-84
2022/04/21 09:48:30;;;;;;;11.75;6.82;;;;;;;;;;5023691;28;20515;-83
2022/04/21 09:51:12;;;;;;;12.02;6.75;;;;;;;;;;5005392;28;20033;-82
2022/04/21 09:53:47;;;;;;;11.32;6.55;;;;;;;;;;5010903;28;20045;-82
2022/04/21 09:56:12;;;;;;;15.80;7.10;;;;;;;;;;5042725;28;20116;-84
2022/04/21 09:58:39;;;;;;;10.63;7.25;;;;;;;;;;5010028;28;20124;-82
2022/04/21 10:01:04;;;;;;;13.73;8.35;;;;;;;;;;5002255;28;20041;-82
2022/04/21 10:03:33;;;;;;;13.50;7.88;;;;;;;;;;5009725;28;20361;-83
2022/04/21 10:05:59;;;;;;;13.85;8.93;;;;;;;;;;5026624;28;20033;-83
2022/04/21 10:08:24;;;;;;;13.68;9.77;;;;;;;;;;5025341;28;20567;-81
2022/04/21 10:10:51;;;;;;;14.07;9.50;;;;;;;;;;5009642;28;20035;-81
2022/04/21 10:13:17;;;;;;;16.13;9.30;;;;;;;;;;5009670;28;20041;-83
2022/04/21 10:15:43;;;;;;;18.35;10.27;;;;;;;;;;5025929;28;20045;-81
2022/04/21 10:18:12;;;;;;;12.82;9.68;;;;;;;;;;5005233;28;20112;-82
2022/04/21 10:20:40;;;;;;;14.82;9.48;;;;;;;;;;5026624;28;20397;-81
2022/04/21 10:23:10;;;;;;;13.65;9.40;;;;;;;;;;5026586;28;20029;-82
2022/04/21 10:25:36;;;;;;;14.38;9.20;;;;;;;;;;5026167;28;20042;-82
2022/04/21 10:28:34;;;;;;;12.20;9.45;;;;;;;;;;4998952;28;20037;-81
2022/04/21 10:31:29;;;;;;;13.38;9.27;;;;;;;;;;5016617;28;20564;-82
2022/04/21 10:34:05;;;;;;;16.65;10.18;;;;;;;;;;5005585;28;20046;-82
2022/04/21 10:36:33;;;;;;;16.50;10.02;;;;;;;;;;5007647;28;20052;-81
2022/04/21 10:39:25;;;;;;;14.27;10.80;;;;;;;;;;5026041;28;20382;-82
2022/04/21 10:42:14;;;;;;;13.75;9.68;;;;;;;;;;5018230;28;20488;-81
2022/04/21 10:44:52;;;;;;;13.02;8.95;;;;;;;;;;5041419;28;20048;-82
2022/04/21 10:47:30;;;;;;;15.77;9.43;;;;;;;;;;5025374;28;20041;-83
2022/04/21 10:49:56;;;;;;;21.42;10.55;;;;;;;;;;5025557;28;20550;-82
2022/04/21 10:57:51;;;;;;;13.55;9.35;;;;;;;;;;5026637;28;20388;-82
2022/04/21 11:00:26;;;;;;;14.95;9.57;;;;;;;;;;5024878;28;20098;-83
2022/04/21 11:03:02;;;;;;;14.25;9.32;;;;;;;;;;5023745;28;20036;-83
2022/04/21 11:05:33;;;;;;;15.82;9.77;;;;;;;;;;5009536;28;20485;-83
2022/04/21 11:08:00;;;;;;;14.48;9.88;;;;;;;;;;5015832;28;20438;-83
2022/04/21 11:10:38;;;;;;;14.35;9.40;;;;;;;;;;5002013;28;20493;-83
2022/04/21 11:13:05;;;;;;;14.48;9.65;;;;;;;;;;5041067;28;20428;-83
2022/04/21 11:15:37;;;;;;;13.38;9.45;;;;;;;;;;5008595;28;20063;-83
2022/04/21 11:18:14;;;;;;;12.52;8.90;;;;;;;;;;5025915;28;20539;-84
2022/04/21 11:20:47;;;;;;;15.68;9.35;;;;;;;;;;5041416;28;20095;-85
2022/04/21 11:23:45;;;;;;;13.88;9.18;;;;;;;;;;5008593;28;20378;-83
2022/04/21 11:26:10;;;;;;;12.57;8.90;;;;;;;;;;5014230;28;20516;-83
2022/04/21 11:28:41;;;;;;;13.95;8.88;;;;;;;;;;5007893;28;20052;-84
2022/04/21 11:31:07;;;;;;;14.32;8.82;;;;;;;;;;5007397;28;20037;-84
2022/04/21 11:33:32;;;;;;;12.68;8.80;;;;;;;;;;5001658;28;20606;-83
2022/04/21 11:36:08;;;;;;;13.10;8.80;;;;;;;;;;5023901;28;20064;-83
2022/04/21 11:38:34;;;;;;;13.48;8.07;;;;;;;;;;5018245;28;20033;-83
2022/04/21 11:41:03;;;;;;;12.85;8.05;;;;;;;;;;5013712;28;20029;-84
2022/04/21 11:43:29;;;;;;;14.52;8.05;;;;;;;;;;5007411;28;20037;-83
2022/04/21 11:46:03;;;;;;;11.40;8.00;;;;;;;;;;5006976;28;20036;-81
2022/04/21 11:48:33;;;;;;;11.77;7.68;;;;;;;;;;5007711;28;20076;-79
2022/04/21 11:50:59;;;;;;;12.85;7.80;;;;;;;;;;5023719;28;20065;-82
2022/04/21 11:53:27;;;;;;;11.93;7.72;;;;;;;;;;5024488;28;20056;-83
2022/04/21 11:55:53;;;;;;;10.45;7.45;;;;;;;;;;5023182;28;20030;-80
2022/04/21 11:58:28;;;;;;;10.13;7.70;;;;;;;;;;5007172;28;20160;-80
2022/04/21 12:06:39;;;;;;;10.65;7.35;;;;;;;;;;5015695;28;20040;-80
2022/04/21 12:09:05;;;;;;;8.40;6.47;;;;;;;;;;5007747;28;20072;-81
2022/04/21 12:11:30;;;;;;;12.13;7.03;;;;;;;;;;4989917;28;20033;-82
2022/04/21 12:13:56;;;;;;;10.02;6.53;;;;;;;;;;5024596;28;20048;-80
2022/04/21 12:16:37;;;;;;;11.20;6.35;;;;;;;;;;5022614;28;20034;-81
2022/04/21 12:19:28;;;;;;;8.63;5.82;;;;;;;;;;5022989;28;20035;-81
2022/04/21 12:22:03;;;;;;;9.57;6.88;;;;;;;;;;5024267;28;20503;-80
2022/04/21 12:24:33;;;;;;;10.15;6.40;;;;;;;;;;5007564;28;20037;-81
2022/04/21 12:27:00;;;;;;;11.32;6.75;;;;;;;;;;4995677;28;20037;-82
2022/04/21 12:29:27;;;;;;;11.88;6.57;;;;;;;;;;5023837;28;20163;-81
2022/04/21 12:31:55;;;;;;;8.65;5.82;;;;;;;;;;5006711;28;20045;-81
2022/04/21 12:34:22;;;;;;;12.35;6.47;;;;;;;;;;5008191;28;20046;-81
2022/04/21 12:36:52;;;;;;;10.67;6.83;;;;;;;;;;5017772;28;20104;-80
2022/04/21 12:39:19;;;;;;;10.98;6.53;;;;;;;;;;5000039;28;20764;-84
2022/04/21 12:41:45;;;;;;;8.27;6.25;;;;;;;;;;5007025;28;20040;-82
2022/04/21 12:44:11;;;;;;;11.05;5.97;;;;;;;;;;5007572;28;20029;-82
2022/04/21 12:46:36;;;;;;;10.35;6.15;;;;;;;;;;5039783;28;20136;-80
2022/04/21 12:49:02;;;;;;;10.48;6.30;;;;;;;;;;5007393;28;20506;-81
2022/04/21 12:51:27;;;;;;;9.73;6.22;;;;;;;;;;5023200;28;20038;-82
2022/04/21 12:53:59;;;;;;;9.00;6.03;;;;;;;;;;5006896;28;20033;-82
2022/04/21 12:56:35;;;;;;;10.00;6.38;;;;;;;;;;5006515;28;20443;-83
2022/04/21 12:59:01;;;;;;;8.02;6.05;;;;;;;;;;5006718;28;20109;-82
2022/04/21 13:01:27;;;;;;;8.60;6.13;;;;;;;;;;5006641;28;20121;-82
2022/04/21 13:03:52;;;;;;;8.88;5.80;;;;;;;;;;5006113;28;20460;-82
2022/04/21 13:06:27;;;;;;;9.82;6.20;;;;;;;;;;5005155;28;20061;-82
2022/04/21 13:08:54;;;;;;;8.23;6.00;;;;;;;;;;5023240;28;20029;-82
2022/04/21 13:11:19;;;;;;;14.70;6.97;;;;;;;;;;5006005;28;20061;-82
2022/04/21 13:13:44;;;;;;;8.75;6.13;;;;;;;;;;5006804;28;20527;-82
2022/04/21 13:16:10;;;;;;;11.07;6.68;;;;;;;;;;5022818;28;20040;-83
2022/04/21 13:18:35;;;;;;;11.82;7.20;;;;;;;;;;5023249;28;20037;-84
2022/04/21 13:23:44;;;;;;;9.82;6.75;;;;;;;;;;5023279;28;20095;-83
2022/04/21 13:26:09;;;;;;;9.50;7.03;;;;;;;;;;4999988;28;20034;-82
2022/04/21 13:28:35;;;;;;;10.85;6.75;;;;;;;;;;5010307;28;20136;-83
2022/04/21 13:33:44;;;;;;;9.95;6.70;;;;;;;;;;5026773;28;20047;-82
2022/04/21 13:36:10;;;;;;;8.55;6.75;;;;;;;;;;5009855;28;20045;-83
2022/04/21 13:38:35;;;;;;;8.07;6.57;;;;;;;;;;5023018;28;20041;-82
2022/04/21 13:41:00;;;;;;;9.50;7.30;;;;;;;;;;5010882;28;20548;-83
2022/04/21 13:43:26;;;;;;;9.52;6.75;;;;;;;;;;5005128;28;20064;-82
2022/04/21 13:45:52;;;;;;;9.98;6.63;;;;;;;;;;5026732;28;20091;-83
2022/04/21 13:48:17;;;;;;;8.90;7.00;;;;;;;;;;5026836;28;20439;-83
2022/04/21 13:50:43;;;;;;;7.85;6.80;;;;;;;;;;5011020;28;20042;-82
2022/04/21 13:53:08;;;;;;;10.50;7.13;;;;;;;;;;5027014;28;20103;-83
2022/04/21 13:55:34;;;;;;;8.13;7.05;;;;;;;;;;5026512;28;20037;-83
2022/04/21 13:58:00;;;;;;;11.57;7.55;;;;;;;;;;5004769;28;20137;-82
2022/04/21 14:00:26;;;;;;;8.23;7.07;;;;;;;;;;5004739;28;20437;-83
2022/04/21 14:02:52;;;;;;;10.30;7.20;;;;;;;;;;5003180;28;20099;-83
2022/04/21 14:05:18;;;;;;;8.63;7.10;;;;;;;;;;5026533;28;20040;-83
2022/04/21 14:07:43;;;;;;;9.20;7.30;;;;;;;;;;5009773;28;20037;-82
2022/04/21 14:10:09;;;;;;;9.38;6.97;;;;;;;;;;5008980;28;20137;-83
2022/04/21 14:12:34;;;;;;;11.68;7.53;;;;;;;;;;5002854;28;20064;-82
2022/04/21 14:15:00;;;;;;;8.95;6.47;;;;;;;;;;5011298;28;20036;-82
2022/04/21 14:17:25;;;;;;;9.70;7.22;;;;;;;;;;5026391;28;20041;-83
2022/04/21 14:19:50;;;;;;;9.02;6.72;;;;;;;;;;5009552;28;20029;-83
2022/04/21 14:22:16;;;;;;;8.57;6.43;;;;;;;;;;5025394;28;20365;-83
2022/04/21 14:24:43;;;;;;;8.80;7.05;;;;;;;;;;5003823;28;20069;-83
2022/04/21 14:27:08;;;;;;;10.63;7.23;;;;;;;;;;5025142;28;20044;-82
2022/04/21 14:29:33;;;;;;;10.27;7.03;;;;;;;;;;5025834;28;20275;-83
2022/04/21 14:31:58;;;;;;;8.77;6.43;;;;;;;;;;5010053;28;20061;-82
2022/04/21 14:34:25;;;;;;;9.57;7.22;;;;;;;;;;5010163;28;20033;-83
2022/04/21 14:36:51;;;;;;;10.60;7.65;;;;;;;;;;5009685;28;20124;-83
2022/04/21 14:44:44;;;;;;;11.38;7.53;;;;;;;;;;5018513;28;20130;-83
2022/04/21 14:47:09;;;;;;;11.68;7.60;;;;;;;;;;5008900;28;20112;-82
2022/04/21 14:49:36;;;;;;;9.18;7.20;;;;;;;;;;5009378;28;20107;-83
2022/04/21 14:52:06;;;;;;;10.00;7.53;;;;;;;;;;5008598;28;20397;-82
2022/04/21 14:54:31;;;;;;;9.30;7.88;;;;;;;;;;5026219;28;20471;-82
2022/04/21 14:56:57;;;;;;;10.73;7.60;;;;;;;;;;5009246;28;20041;-82
2022/04/21 14:59:22;;;;;;;9.48;8.00;;;;;;;;;;5000427;28;20087;-83
2022/04/21 15:01:48;;;;;;;9.07;7.93;;;;;;;;;;5008543;28;20060;-82
2022/04/21 15:04:13;;;;;;;9.20;7.82;;;;;;;;;;5009205;28;20378;-82
2022/04/21 15:06:43;;;;;;;9.65;8.15;;;;;;;;;;5007939;28;20040;-82
2022/04/21 15:09:08;;;;;;;10.68;8.02;;;;;;;;;;5009883;28;20033;-82
2022/04/21 15:11:35;;;;;;;10.93;8.48;;;;;;;;;;5009217;28;20033;-82
2022/04/21 15:14:01;;;;;;;9.07;7.95;;;;;;;;;;5009562;28;20037;-81
2022/04/21 15:16:26;;;;;;;10.85;7.93;;;;;;;;;;5008514;28;20037;-82
2022/04/21 15:18:52;;;;;;;9.80;8.13;;;;;;;;;;5008661;28;20037;-82
2022/04/21 15:21:18;;;;;;;9.32;7.75;;;;;;;;;;5024826;28;20412;-82
2022/04/21 15:23:43;;;;;;;10.50;8.82;;;;;;;;;;5009090;28;20042;-81
2022/04/21 15:26:09;;;;;;;11.00;8.38;;;;;;;;;;5008137;28;20045;-82
2022/04/21 15:28:34;;;;;;;10.73;8.43;;;;;;;;;;5008407;28;20042;-81
2022/04/21 15:30:59;;;;;;;10.63;8.68;;;;;;;;;;5009252;28;20094;-82
2022/04/21 15:33:25;;;;;;;10.00;8.23;;;;;;;;;;5009258;28;20160;-81
2022/04/21 15:35:50;;;;;;;9.73;8.48;;;;;;;;;;5002340;28;20041;-82
2022/04/21 15:38:17;;;;;;;9.85;8.27;;;;;;;;;;5024983;28;20485;-82
2022/04/21 15:40:43;;;;;;;10.02;8.05;;;;;;;;;;5041219;28;20060;-82